sensor_id;sensor_type;location;lat;lon;timestamp;temperature;humidity
33865;DHT22;20159;51.072;13.526;2023-01-15T00:00:58;11.70;87.30
33865;DHT22;20159;51.072;13.526;2023-01-15T00:03:23;11.70;87.40
33865;DHT22;20159;51.072;13.526;2023-01-15T00:05:49;11.70;87.20
33865;DHT22;20159;51.072;13.526;2023-01-15T00:08:15;11.70;86.90
33865;DHT22;20159;51.072;13.526;2023-01-15T00:10:40;11.70;86.80
33865;DHT22;20159;51.072;13.526;2023-01-15T00:13:06;11.80;86.70
33865;DHT22;20159;51.072;13.526;2023-01-15T00:15:31;11.80;86.40
33865;DHT22;20159;51.072;13.526;2023-01-15T00:17:57;11.80;86.40
33865;DHT22;20159;51.072;13.526;2023-01-15T00:20:22;11.90;86.50
33865;DHT22;20159;51.072;13.526;2023-01-15T00:22:48;11.90;86.40
33865;DHT22;20159;51.072;13.526;2023-01-15T00:25:14;11.90;86.70
33865;DHT22;20159;51.072;13.526;2023-01-15T00:27:58;11.90;86.20
33865;DHT22;20159;51.072;13.526;2023-01-15T00:30:23;11.90;85.70
33865;DHT22;20159;51.072;13.526;2023-01-15T00:32:49;12.00;86.10
33865;DHT22;20159;51.072;13.526;2023-01-15T00:35:18;12.00;86.20
33865;DHT22;20159;51.072;13.526;2023-01-15T00:37:44;12.00;85.90
33865;DHT22;20159;51.072;13.526;2023-01-15T00:40:13;12.10;86.00
33865;DHT22;20159;51.072;13.526;2023-01-15T00:42:40;12.10;85.90
33865;DHT22;20159;51.072;13.526;2023-01-15T00:45:06;12.10;85.90
33865;DHT22;20159;51.072;13.526;2023-01-15T00:47:39;12.10;85.70
33865;DHT22;20159;51.072;13.526;2023-01-15T00:50:07;12.10;85.90
33865;DHT22;20159;51.072;13.526;2023-01-15T00:52:33;12.20;85.80
33865;DHT22;20159;51.072;13.526;2023-01-15T00:54:59;12.20;85.60
33865;DHT22;20159;51.072;13.526;2023-01-15T00:57:24;12.20;85.70
33865;DHT22;20159;51.072;13.526;2023-01-15T00:59:50;12.20;85.80
33865;DHT22;20159;51.072;13.526;2023-01-15T01:02:15;12.20;85.70
33865;DHT22;20159;51.072;13.526;2023-01-15T01:04:50;12.20;85.80
33865;DHT22;20159;51.072;13.526;2023-01-15T01:07:23;12.30;85.70
33865;DHT22;20159;51.072;13.526;2023-01-15T01:09:49;12.30;85.60
33865;DHT22;20159;51.072;13.526;2023-01-15T01:12:14;12.30;85.60
33865;DHT22;20159;51.072;13.526;2023-01-15T01:14:40;12.30;85.60
33865;DHT22;20159;51.072;13.526;2023-01-15T01:17:15;12.40;85.40
33865;DHT22;20159;51.072;13.526;2023-01-15T01:19:40;12.40;85.20
33865;DHT22;20159;51.072;13.526;2023-01-15T01:22:06;12.40;85.50
33865;DHT22;20159;51.072;13.526;2023-01-15T01:24:34;12.40;85.60
33865;DHT22;20159;51.072;13.526;2023-01-15T01:27:00;12.40;85.60
33865;DHT22;20159;51.072;13.526;2023-01-15T01:29:25;12.40;85.50
33865;DHT22;20159;51.072;13.526;2023-01-15T01:31:51;12.50;85.40
33865;DHT22;20159;51.072;13.526;2023-01-15T01:34:17;12.50;85.50
33865;DHT22;20159;51.072;13.526;2023-01-15T01:36:43;12.50;85.50
33865;DHT22;20159;51.072;13.526;2023-01-15T01:39:18;12.50;85.40
33865;DHT22;20159;51.072;13.526;2023-01-15T01:41:45;12.40;85.50
33865;DHT22;20159;51.072;13.526;2023-01-15T01:47:07;12.50;85.60
33865;DHT22;20159;51.072;13.526;2023-01-15T01:49:35;12.50;85.60
33865;DHT22;20159;51.072;13.526;2023-01-15T01:52:07;12.50;85.40
33865;DHT22;20159;51.072;13.526;2023-01-15T01:54:34;12.50;85.60
33865;DHT22;20159;51.072;13.526;2023-01-15T01:57:02;12.50;85.60
33865;DHT22;20159;51.072;13.526;2023-01-15T01:59:28;12.50;85.60
33865;DHT22;20159;51.072;13.526;2023-01-15T02:01:54;12.50;85.40
33865;DHT22;20159;51.072;13.526;2023-01-15T02:04:21;12.50;85.20
33865;DHT22;20159;51.072;13.526;2023-01-15T02:06:50;12.50;85.10
33865;DHT22;20159;51.072;13.526;2023-01-15T02:09:16;12.60;85.20
33865;DHT22;20159;51.072;13.526;2023-01-15T02:11:41;12.60;84.90
33865;DHT22;20159;51.072;13.526;2023-01-15T02:14:20;12.60;84.90
33865;DHT22;20159;51.072;13.526;2023-01-15T02:16:58;12.60;84.80
33865;DHT22;20159;51.072;13.526;2023-01-15T02:19:51;12.60;85.00
33865;DHT22;20159;51.072;13.526;2023-01-15T02:22:37;12.70;84.70
33865;DHT22;20159;51.072;13.526;2023-01-15T02:27:46;12.70;84.90
33865;DHT22;20159;51.072;13.526;2023-01-15T02:30:23;12.70;85.00
33865;DHT22;20159;51.072;13.526;2023-01-15T02:33:04;12.70;84.50
33865;DHT22;20159;51.072;13.526;2023-01-15T02:35:39;12.70;84.10
33865;DHT22;20159;51.072;13.526;2023-01-15T02:38:09;12.80;84.70
33865;DHT22;20159;51.072;13.526;2023-01-15T02:40:36;12.80;84.80
33865;DHT22;20159;51.072;13.526;2023-01-15T02:43:04;12.80;84.70
33865;DHT22;20159;51.072;13.526;2023-01-15T02:45:34;12.80;85.00
33865;DHT22;20159;51.072;13.526;2023-01-15T02:48:11;12.80;85.10
33865;DHT22;20159;51.072;13.526;2023-01-15T02:50:43;12.80;84.80
33865;DHT22;20159;51.072;13.526;2023-01-15T02:53:13;12.80;85.10
33865;DHT22;20159;51.072;13.526;2023-01-15T02:55:45;12.90;84.90
33865;DHT22;20159;51.072;13.526;2023-01-15T02:58:15;12.80;84.80
33865;DHT22;20159;51.072;13.526;2023-01-15T03:00:45;12.80;84.70
33865;DHT22;20159;51.072;13.526;2023-01-15T03:06:13;12.80;84.40
33865;DHT22;20159;51.072;13.526;2023-01-15T03:08:39;14.70;86.00
33865;DHT22;20159;51.072;13.526;2023-01-15T03:11:11;12.80;84.30
33865;DHT22;20159;51.072;13.526;2023-01-15T03:16:32;12.90;84.50
33865;DHT22;20159;51.072;13.526;2023-01-15T03:19:28;12.90;84.60
33865;DHT22;20159;51.072;13.526;2023-01-15T03:22:28;12.90;83.80
33865;DHT22;20159;51.072;13.526;2023-01-15T03:25:00;12.90;84.20
33865;DHT22;20159;51.072;13.526;2023-01-15T03:27:28;12.90;83.90
33865;DHT22;20159;51.072;13.526;2023-01-15T03:30:02;13.00;83.90
33865;DHT22;20159;51.072;13.526;2023-01-15T03:32:29;13.00;83.70
33865;DHT22;20159;51.072;13.526;2023-01-15T03:34:55;13.00;83.70
33865;DHT22;20159;51.072;13.526;2023-01-15T03:37:23;13.00;83.70
33865;DHT22;20159;51.072;13.526;2023-01-15T03:39:50;13.00;83.60
33865;DHT22;20159;51.072;13.526;2023-01-15T03:42:39;13.00;83.40
33865;DHT22;20159;51.072;13.526;2023-01-15T03:45:30;13.00;83.80
33865;DHT22;20159;51.072;13.526;2023-01-15T03:48:24;13.10;84.20
33865;DHT22;20159;51.072;13.526;2023-01-15T03:50:57;13.10;84.10
33865;DHT22;20159;51.072;13.526;2023-01-15T03:53:39;13.10;84.10
33865;DHT22;20159;51.072;13.526;2023-01-15T03:59:03;13.10;84.00
33865;DHT22;20159;51.072;13.526;2023-01-15T04:01:34;12.60;83.70
33865;DHT22;20159;51.072;13.526;2023-01-15T04:04:01;14.70;84.60
33865;DHT22;20159;51.072;13.526;2023-01-15T04:06:28;13.10;83.50
33865;DHT22;20159;51.072;13.526;2023-01-15T04:08:55;13.10;83.70
33865;DHT22;20159;51.072;13.526;2023-01-15T04:11:23;11.80;83.30
33865;DHT22;20159;51.072;13.526;2023-01-15T04:13:50;13.10;84.00
33865;DHT22;20159;51.072;13.526;2023-01-15T04:16:23;13.10;84.50
33865;DHT22;20159;51.072;13.526;2023-01-15T04:18:50;13.10;84.80
33865;DHT22;20159;51.072;13.526;2023-01-15T04:21:16;13.10;84.70
33865;DHT22;20159;51.072;13.526;2023-01-15T04:23:42;13.10;84.90
33865;DHT22;20159;51.072;13.526;2023-01-15T04:26:07;13.10;85.20
33865;DHT22;20159;51.072;13.526;2023-01-15T04:28:35;13.00;85.30
33865;DHT22;20159;51.072;13.526;2023-01-15T04:31:01;13.00;85.50
33865;DHT22;20159;51.072;13.526;2023-01-15T04:33:26;12.90;85.80
33865;DHT22;20159;51.072;13.526;2023-01-15T04:35:52;13.20;86.20
33865;DHT22;20159;51.072;13.526;2023-01-15T04:38:17;12.80;86.20
33865;DHT22;20159;51.072;13.526;2023-01-15T04:40:43;12.80;86.30
33865;DHT22;20159;51.072;13.526;2023-01-15T04:43:28;12.70;86.30
33865;DHT22;20159;51.072;13.526;2023-01-15T04:46:12;12.70;86.20
33865;DHT22;20159;51.072;13.526;2023-01-15T04:48:40;12.70;86.20
33865;DHT22;20159;51.072;13.526;2023-01-15T04:51:06;12.70;86.50
33865;DHT22;20159;51.072;13.526;2023-01-15T04:53:32;12.60;86.30
33865;DHT22;20159;51.072;13.526;2023-01-15T04:56:03;12.70;86.20
33865;DHT22;20159;51.072;13.526;2023-01-15T04:58:29;12.70;86.20
33865;DHT22;20159;51.072;13.526;2023-01-15T05:00:55;12.70;86.10
33865;DHT22;20159;51.072;13.526;2023-01-15T05:03:20;12.70;86.40
33865;DHT22;20159;51.072;13.526;2023-01-15T05:05:46;12.70;86.00
33865;DHT22;20159;51.072;13.526;2023-01-15T05:08:11;12.70;86.10
33865;DHT22;20159;51.072;13.526;2023-01-15T05:10:37;12.70;86.00
33865;DHT22;20159;51.072;13.526;2023-01-15T05:13:03;12.80;85.80
33865;DHT22;20159;51.072;13.526;2023-01-15T05:15:28;12.80;85.80
33865;DHT22;20159;51.072;13.526;2023-01-15T05:17:56;12.80;85.60
33865;DHT22;20159;51.072;13.526;2023-01-15T05:20:22;12.80;85.50
33865;DHT22;20159;51.072;13.526;2023-01-15T05:22:47;12.90;85.40
33865;DHT22;20159;51.072;13.526;2023-01-15T05:25:13;12.90;85.30
33865;DHT22;20159;51.072;13.526;2023-01-15T05:27:38;12.90;85.30
33865;DHT22;20159;51.072;13.526;2023-01-15T05:30:05;13.00;85.10
33865;DHT22;20159;51.072;13.526;2023-01-15T05:32:31;13.00;84.70
33865;DHT22;20159;51.072;13.526;2023-01-15T05:34:57;13.00;84.90
33865;DHT22;20159;51.072;13.526;2023-01-15T05:37:23;13.10;84.80
33865;DHT22;20159;51.072;13.526;2023-01-15T05:39:49;13.10;84.60
33865;DHT22;20159;51.072;13.526;2023-01-15T05:42:14;13.10;84.40
33865;DHT22;20159;51.072;13.526;2023-01-15T05:44:40;13.10;84.60
33865;DHT22;20159;51.072;13.526;2023-01-15T05:47:05;13.20;84.20
33865;DHT22;20159;51.072;13.526;2023-01-15T05:49:32;13.20;84.10
33865;DHT22;20159;51.072;13.526;2023-01-15T05:51:58;13.20;84.00
33865;DHT22;20159;51.072;13.526;2023-01-15T05:54:38;13.20;84.10
33865;DHT22;20159;51.072;13.526;2023-01-15T05:57:03;13.20;83.90
33865;DHT22;20159;51.072;13.526;2023-01-15T05:59:30;13.30;84.00
33865;DHT22;20159;51.072;13.526;2023-01-15T06:01:57;13.20;83.70
33865;DHT22;20159;51.072;13.526;2023-01-15T06:04:22;13.30;83.90
33865;DHT22;20159;51.072;13.526;2023-01-15T06:06:53;13.30;83.50
33865;DHT22;20159;51.072;13.526;2023-01-15T06:09:19;13.30;83.60
33865;DHT22;20159;51.072;13.526;2023-01-15T06:11:47;13.30;83.60
33865;DHT22;20159;51.072;13.526;2023-01-15T06:14:13;13.30;83.40
33865;DHT22;20159;51.072;13.526;2023-01-15T06:16:42;13.30;83.70
33865;DHT22;20159;51.072;13.526;2023-01-15T06:19:09;13.40;84.90
33865;DHT22;20159;51.072;13.526;2023-01-15T06:21:35;13.40;85.80
33865;DHT22;20159;51.072;13.526;2023-01-15T06:24:02;13.30;86.10
33865;DHT22;20159;51.072;13.526;2023-01-15T06:26:27;13.20;86.00
33865;DHT22;20159;51.072;13.526;2023-01-15T06:28:53;13.10;86.10
33865;DHT22;20159;51.072;13.526;2023-01-15T06:31:21;13.00;86.40
33865;DHT22;20159;51.072;13.526;2023-01-15T06:33:47;12.80;86.70
33865;DHT22;20159;51.072;13.526;2023-01-15T06:36:15;12.70;87.10
33865;DHT22;20159;51.072;13.526;2023-01-15T06:38:42;12.50;87.70
33865;DHT22;20159;51.072;13.526;2023-01-15T06:41:12;12.40;88.10
33865;DHT22;20159;51.072;13.526;2023-01-15T06:43:56;12.30;88.80
33865;DHT22;20159;51.072;13.526;2023-01-15T06:46:47;12.20;88.60
33865;DHT22;20159;51.072;13.526;2023-01-15T06:49:33;12.00;86.70
33865;DHT22;20159;51.072;13.526;2023-01-15T06:51:59;11.90;85.70
33865;DHT22;20159;51.072;13.526;2023-01-15T06:54:25;11.70;85.20
33865;DHT22;20159;51.072;13.526;2023-01-15T06:56:51;11.50;85.00
33865;DHT22;20159;51.072;13.526;2023-01-15T06:59:17;11.30;85.00
33865;DHT22;20159;51.072;13.526;2023-01-15T07:01:42;11.00;85.10
33865;DHT22;20159;51.072;13.526;2023-01-15T07:04:08;10.80;85.70
33865;DHT22;20159;51.072;13.526;2023-01-15T07:06:33;10.60;85.60
33865;DHT22;20159;51.072;13.526;2023-01-15T07:08:59;10.40;85.80
33865;DHT22;20159;51.072;13.526;2023-01-15T07:11:25;10.20;86.00
33865;DHT22;20159;51.072;13.526;2023-01-15T07:13:50;10.10;86.50
33865;DHT22;20159;51.072;13.526;2023-01-15T07:16:38;9.90;86.50
33865;DHT22;20159;51.072;13.526;2023-01-15T07:19:04;9.70;86.90
33865;DHT22;20159;51.072;13.526;2023-01-15T07:21:29;9.70;87.20
33865;DHT22;20159;51.072;13.526;2023-01-15T07:23:58;9.50;87.50
33865;DHT22;20159;51.072;13.526;2023-01-15T07:26:24;9.40;88.20
33865;DHT22;20159;51.072;13.526;2023-01-15T07:28:50;9.20;88.10
33865;DHT22;20159;51.072;13.526;2023-01-15T07:31:15;9.10;88.20
33865;DHT22;20159;51.072;13.526;2023-01-15T07:33:41;9.00;88.50
33865;DHT22;20159;51.072;13.526;2023-01-15T07:36:07;9.00;88.90
33865;DHT22;20159;51.072;13.526;2023-01-15T07:38:32;8.90;89.40
33865;DHT22;20159;51.072;13.526;2023-01-15T07:41:00;8.80;89.70
33865;DHT22;20159;51.072;13.526;2023-01-15T07:43:45;8.70;90.00
33865;DHT22;20159;51.072;13.526;2023-01-15T07:46:29;8.70;90.20
33865;DHT22;20159;51.072;13.526;2023-01-15T07:49:13;8.60;90.40
33865;DHT22;20159;51.072;13.526;2023-01-15T07:51:58;8.60;90.50
33865;DHT22;20159;51.072;13.526;2023-01-15T07:54:24;8.50;90.70
33865;DHT22;20159;51.072;13.526;2023-01-15T07:56:50;8.60;90.80
33865;DHT22;20159;51.072;13.526;2023-01-15T07:59:16;8.50;90.80
33865;DHT22;20159;51.072;13.526;2023-01-15T08:01:42;8.40;90.80
33865;DHT22;20159;51.072;13.526;2023-01-15T08:04:08;8.40;91.00
33865;DHT22;20159;51.072;13.526;2023-01-15T08:06:34;8.50;91.10
33865;DHT22;20159;51.072;13.526;2023-01-15T08:09:00;8.40;91.20
33865;DHT22;20159;51.072;13.526;2023-01-15T08:11:25;8.40;91.40
33865;DHT22;20159;51.072;13.526;2023-01-15T08:14:09;8.40;91.40
33865;DHT22;20159;51.072;13.526;2023-01-15T08:16:54;8.30;91.50
33865;DHT22;20159;51.072;13.526;2023-01-15T08:19:19;8.40;91.80
33865;DHT22;20159;51.072;13.526;2023-01-15T08:21:45;8.40;91.50
33865;DHT22;20159;51.072;13.526;2023-01-15T08:24:10;8.30;91.50
33865;DHT22;20159;51.072;13.526;2023-01-15T08:26:36;8.30;91.50
33865;DHT22;20159;51.072;13.526;2023-01-15T08:29:01;8.30;91.60
33865;DHT22;20159;51.072;13.526;2023-01-15T08:31:27;8.30;91.70
33865;DHT22;20159;51.072;13.526;2023-01-15T08:33:52;8.30;91.80
33865;DHT22;20159;51.072;13.526;2023-01-15T08:36:18;8.40;91.90
33865;DHT22;20159;51.072;13.526;2023-01-15T08:38:44;8.30;92.00
33865;DHT22;20159;51.072;13.526;2023-01-15T08:41:09;8.40;92.10
33865;DHT22;20159;51.072;13.526;2023-01-15T08:43:35;8.40;92.20
33865;DHT22;20159;51.072;13.526;2023-01-15T08:46:03;8.30;92.10
33865;DHT22;20159;51.072;13.526;2023-01-15T08:48:30;8.40;92.10
33865;DHT22;20159;51.072;13.526;2023-01-15T08:50:56;8.40;92.10
33865;DHT22;20159;51.072;13.526;2023-01-15T08:53:21;8.50;92.10
33865;DHT22;20159;51.072;13.526;2023-01-15T08:55:49;8.50;92.20
33865;DHT22;20159;51.072;13.526;2023-01-15T08:58:15;10.60;92.70
33865;DHT22;20159;51.072;13.526;2023-01-15T09:00:41;8.50;92.10
33865;DHT22;20159;51.072;13.526;2023-01-15T09:03:07;8.40;91.90
33865;DHT22;20159;51.072;13.526;2023-01-15T09:05:33;8.50;91.90
33865;DHT22;20159;51.072;13.526;2023-01-15T09:07:58;8.50;91.90
33865;DHT22;20159;51.072;13.526;2023-01-15T09:10:24;11.30;92.50
33865;DHT22;20159;51.072;13.526;2023-01-15T09:12:50;8.40;91.80
33865;DHT22;20159;51.072;13.526;2023-01-15T09:15:16;8.40;91.80
33865;DHT22;20159;51.072;13.526;2023-01-15T09:17:42;8.40;91.80
33865;DHT22;20159;51.072;13.526;2023-01-15T09:20:10;8.50;91.80
33865;DHT22;20159;51.072;13.526;2023-01-15T09:22:36;8.40;91.70
33865;DHT22;20159;51.072;13.526;2023-01-15T09:25:02;8.40;91.70
33865;DHT22;20159;51.072;13.526;2023-01-15T09:27:28;8.30;91.70
33865;DHT22;20159;51.072;13.526;2023-01-15T09:29:54;8.30;91.80
33865;DHT22;20159;51.072;13.526;2023-01-15T09:32:20;8.20;91.80
33865;DHT22;20159;51.072;13.526;2023-01-15T09:34:45;8.30;91.90
33865;DHT22;20159;51.072;13.526;2023-01-15T09:37:11;8.30;91.90
33865;DHT22;20159;51.072;13.526;2023-01-15T09:39:37;8.30;92.00
33865;DHT22;20159;51.072;13.526;2023-01-15T09:45:14;8.30;92.60
33865;DHT22;20159;51.072;13.526;2023-01-15T09:48:12;8.30;93.00
33865;DHT22;20159;51.072;13.526;2023-01-15T09:51:02;8.40;93.20
33865;DHT22;20159;51.072;13.526;2023-01-15T09:56:18;8.50;92.70
33865;DHT22;20159;51.072;13.526;2023-01-15T09:58:44;8.50;92.40
33865;DHT22;20159;51.072;13.526;2023-01-15T10:01:15;8.60;92.30
33865;DHT22;20159;51.072;13.526;2023-01-15T10:03:53;8.60;92.30
33865;DHT22;20159;51.072;13.526;2023-01-15T10:06:28;8.70;92.10
33865;DHT22;20159;51.072;13.526;2023-01-15T10:09:08;8.60;92.10
33865;DHT22;20159;51.072;13.526;2023-01-15T10:11:42;8.60;92.10
33865;DHT22;20159;51.072;13.526;2023-01-15T10:14:54;8.70;92.20
33865;DHT22;20159;51.072;13.526;2023-01-15T10:20:05;8.70;92.60
33865;DHT22;20159;51.072;13.526;2023-01-15T10:22:36;11.60;93.00
33865;DHT22;20159;51.072;13.526;2023-01-15T10:25:07;8.70;92.10
33865;DHT22;20159;51.072;13.526;2023-01-15T10:27:35;8.70;92.10
33865;DHT22;20159;51.072;13.526;2023-01-15T10:30:14;8.80;92.20
33865;DHT22;20159;51.072;13.526;2023-01-15T10:32:50;8.90;91.90
33865;DHT22;20159;51.072;13.526;2023-01-15T10:35:41;8.80;91.80
33865;DHT22;20159;51.072;13.526;2023-01-15T10:38:28;8.80;91.70
33865;DHT22;20159;51.072;13.526;2023-01-15T10:44:00;8.80;91.20
33865;DHT22;20159;51.072;13.526;2023-01-15T10:46:31;8.80;90.60
33865;DHT22;20159;51.072;13.526;2023-01-15T10:49:14;8.90;90.90
33865;DHT22;20159;51.072;13.526;2023-01-15T10:52:04;8.80;90.80
33865;DHT22;20159;51.072;13.526;2023-01-15T10:54:37;8.80;90.70
33865;DHT22;20159;51.072;13.526;2023-01-15T10:57:17;8.90;90.60
33865;DHT22;20159;51.072;13.526;2023-01-15T10:59:59;8.90;90.60
33865;DHT22;20159;51.072;13.526;2023-01-15T11:02:34;8.90;90.40
33865;DHT22;20159;51.072;13.526;2023-01-15T11:05:03;8.90;90.20
33865;DHT22;20159;51.072;13.526;2023-01-15T11:07:38;9.00;89.90
33865;DHT22;20159;51.072;13.526;2023-01-15T11:10:07;9.00;89.40
33865;DHT22;20159;51.072;13.526;2023-01-15T11:12:38;8.90;89.00
33865;DHT22;20159;51.072;13.526;2023-01-15T11:15:24;8.90;88.10
33865;DHT22;20159;51.072;13.526;2023-01-15T11:18:26;8.90;88.60
33865;DHT22;20159;51.072;13.526;2023-01-15T11:21:16;8.90;89.30
33865;DHT22;20159;51.072;13.526;2023-01-15T11:23:43;8.90;89.30
33865;DHT22;20159;51.072;13.526;2023-01-15T11:26:09;8.90;89.30
33865;DHT22;20159;51.072;13.526;2023-01-15T11:28:41;8.90;89.00
33865;DHT22;20159;51.072;13.526;2023-01-15T11:31:09;8.90;87.90
33865;DHT22;20159;51.072;13.526;2023-01-15T11:33:36;8.90;87.80
33865;DHT22;20159;51.072;13.526;2023-01-15T11:36:17;8.90;88.30
33865;DHT22;20159;51.072;13.526;2023-01-15T11:38:46;8.90;88.40
33865;DHT22;20159;51.072;13.526;2023-01-15T11:41:27;8.90;88.80
33865;DHT22;20159;51.072;13.526;2023-01-15T11:44:12;8.90;88.40
33865;DHT22;20159;51.072;13.526;2023-01-15T11:46:57;8.90;88.50
33865;DHT22;20159;51.072;13.526;2023-01-15T11:49:52;9.00;87.90
33865;DHT22;20159;51.072;13.526;2023-01-15T11:52:41;9.00;86.80
33865;DHT22;20159;51.072;13.526;2023-01-15T11:55:12;9.00;87.30
33865;DHT22;20159;51.072;13.526;2023-01-15T11:57:39;9.10;87.50
33865;DHT22;20159;51.072;13.526;2023-01-15T12:00:07;9.10;87.60
33865;DHT22;20159;51.072;13.526;2023-01-15T12:02:44;9.10;87.70
33865;DHT22;20159;51.072;13.526;2023-01-15T12:05:35;9.10;87.80
33865;DHT22;20159;51.072;13.526;2023-01-15T12:10:53;9.20;86.40
33865;DHT22;20159;51.072;13.526;2023-01-15T12:16:49;9.20;86.20
33865;DHT22;20159;51.072;13.526;2023-01-15T12:19:34;9.20;85.70
33865;DHT22;20159;51.072;13.526;2023-01-15T12:25:06;9.20;85.70
33865;DHT22;20159;51.072;13.526;2023-01-15T12:27:51;9.20;86.00
33865;DHT22;20159;51.072;13.526;2023-01-15T12:32:59;9.30;85.70
33865;DHT22;20159;51.072;13.526;2023-01-15T12:35:30;9.30;85.80
33865;DHT22;20159;51.072;13.526;2023-01-15T12:40:55;9.30;84.50
33865;DHT22;20159;51.072;13.526;2023-01-15T12:43:25;9.40;85.70
33865;DHT22;20159;51.072;13.526;2023-01-15T12:46:16;9.40;85.20
33865;DHT22;20159;51.072;13.526;2023-01-15T12:48:53;9.40;85.20
33865;DHT22;20159;51.072;13.526;2023-01-15T12:51:29;9.50;85.10
33865;DHT22;20159;51.072;13.526;2023-01-15T12:54:05;9.60;84.90
33865;DHT22;20159;51.072;13.526;2023-01-15T12:56:46;9.60;85.20
33865;DHT22;20159;51.072;13.526;2023-01-15T12:59:40;9.70;83.90
33865;DHT22;20159;51.072;13.526;2023-01-15T13:02:39;9.60;82.30
33865;DHT22;20159;51.072;13.526;2023-01-15T13:07:48;9.60;83.40
33865;DHT22;20159;51.072;13.526;2023-01-15T13:10:32;9.60;82.20
33865;DHT22;20159;51.072;13.526;2023-01-15T13:13:15;9.60;82.70
33865;DHT22;20159;51.072;13.526;2023-01-15T13:15:51;9.50;81.40
33865;DHT22;20159;51.072;13.526;2023-01-15T13:18:36;9.50;81.50
33865;DHT22;20159;51.072;13.526;2023-01-15T13:21:12;9.50;80.90
33865;DHT22;20159;51.072;13.526;2023-01-15T13:24:18;9.40;80.10
33865;DHT22;20159;51.072;13.526;2023-01-15T13:27:09;9.40;80.70
33865;DHT22;20159;51.072;13.526;2023-01-15T13:32:20;9.40;81.60
33865;DHT22;20159;51.072;13.526;2023-01-15T13:34:57;9.40;81.60
33865;DHT22;20159;51.072;13.526;2023-01-15T13:37:28;9.40;81.50
33865;DHT22;20159;51.072;13.526;2023-01-15T13:42:46;9.40;81.20
33865;DHT22;20159;51.072;13.526;2023-01-15T13:45:30;9.40;80.70
33865;DHT22;20159;51.072;13.526;2023-01-15T13:48:01;9.30;80.10
33865;DHT22;20159;51.072;13.526;2023-01-15T13:50:30;9.40;80.70
33865;DHT22;20159;51.072;13.526;2023-01-15T13:56:08;9.30;81.00
33865;DHT22;20159;51.072;13.526;2023-01-15T13:58:39;9.30;80.90
33865;DHT22;20159;51.072;13.526;2023-01-15T14:31:10;8.80;80.90
33865;DHT22;20159;51.072;13.526;2023-01-15T14:36:29;8.70;81.30
33865;DHT22;20159;51.072;13.526;2023-01-15T14:38:59;8.60;80.90
33865;DHT22;20159;51.072;13.526;2023-01-15T14:41:32;8.60;80.80
33865;DHT22;20159;51.072;13.526;2023-01-15T14:44:28;8.60;80.30
33865;DHT22;20159;51.072;13.526;2023-01-15T14:47:00;8.50;80.60
33865;DHT22;20159;51.072;13.526;2023-01-15T14:49:41;8.40;80.80
33865;DHT22;20159;51.072;13.526;2023-01-15T14:52:07;8.30;80.70
33865;DHT22;20159;51.072;13.526;2023-01-15T14:54:33;8.30;81.00
33865;DHT22;20159;51.072;13.526;2023-01-15T14:56:59;8.20;80.90
33865;DHT22;20159;51.072;13.526;2023-01-15T15:02:03;8.10;80.90
33865;DHT22;20159;51.072;13.526;2023-01-15T15:04:51;8.00;81.30
33865;DHT22;20159;51.072;13.526;2023-01-15T15:07:21;8.00;81.40
33865;DHT22;20159;51.072;13.526;2023-01-15T15:09:57;7.90;82.10
33865;DHT22;20159;51.072;13.526;2023-01-15T15:15:20;7.80;81.60
33865;DHT22;20159;51.072;13.526;2023-01-15T15:18:07;7.80;81.50
33865;DHT22;20159;51.072;13.526;2023-01-15T15:21:04;7.80;81.10
33865;DHT22;20159;51.072;13.526;2023-01-15T15:26:32;7.60;79.80
33865;DHT22;20159;51.072;13.526;2023-01-15T15:28:59;7.60;80.50
33865;DHT22;20159;51.072;13.526;2023-01-15T15:31:27;7.60;80.40
33865;DHT22;20159;51.072;13.526;2023-01-15T15:33:54;7.60;79.50
33865;DHT22;20159;51.072;13.526;2023-01-15T15:36:23;7.50;79.70
33865;DHT22;20159;51.072;13.526;2023-01-15T15:39:01;7.50;79.40
33865;DHT22;20159;51.072;13.526;2023-01-15T15:41:31;7.50;79.20
33865;DHT22;20159;51.072;13.526;2023-01-15T15:44:39;7.50;79.50
33865;DHT22;20159;51.072;13.526;2023-01-15T15:47:26;7.50;79.10
33865;DHT22;20159;51.072;13.526;2023-01-15T15:50:25;7.50;79.00
33865;DHT22;20159;51.072;13.526;2023-01-15T15:52:51;7.40;78.60
33865;DHT22;20159;51.072;13.526;2023-01-15T15:55:18;7.50;79.00
33865;DHT22;20159;51.072;13.526;2023-01-15T15:57:47;7.40;79.30
33865;DHT22;20159;51.072;13.526;2023-01-15T16:00:18;7.40;78.90
33865;DHT22;20159;51.072;13.526;2023-01-15T16:02:44;7.30;79.10
33865;DHT22;20159;51.072;13.526;2023-01-15T16:05:26;7.20;79.30
33865;DHT22;20159;51.072;13.526;2023-01-15T16:07:53;7.20;78.90
33865;DHT22;20159;51.072;13.526;2023-01-15T16:10:25;7.20;79.00
33865;DHT22;20159;51.072;13.526;2023-01-15T16:12:55;7.20;79.30
33865;DHT22;20159;51.072;13.526;2023-01-15T16:15:52;7.10;79.30
33865;DHT22;20159;51.072;13.526;2023-01-15T16:18:27;7.10;78.80
33865;DHT22;20159;51.072;13.526;2023-01-15T16:20:56;7.10;79.20
33865;DHT22;20159;51.072;13.526;2023-01-15T16:23:24;7.10;79.40
33865;DHT22;20159;51.072;13.526;2023-01-15T16:26:18;7.00;79.40
33865;DHT22;20159;51.072;13.526;2023-01-15T16:28:52;7.00;79.70
33865;DHT22;20159;51.072;13.526;2023-01-15T16:31:19;6.90;79.40
33865;DHT22;20159;51.072;13.526;2023-01-15T16:33:47;6.90;79.50
33865;DHT22;20159;51.072;13.526;2023-01-15T16:36:17;6.90;79.80
33865;DHT22;20159;51.072;13.526;2023-01-15T16:38:46;6.80;79.90
33865;DHT22;20159;51.072;13.526;2023-01-15T16:41:23;6.80;80.10
33865;DHT22;20159;51.072;13.526;2023-01-15T16:43:57;6.70;80.10
33865;DHT22;20159;51.072;13.526;2023-01-15T16:46:27;6.70;80.30
33865;DHT22;20159;51.072;13.526;2023-01-15T16:49:17;6.60;80.60
33865;DHT22;20159;51.072;13.526;2023-01-15T16:51:44;6.60;80.90
33865;DHT22;20159;51.072;13.526;2023-01-15T16:57:03;6.50;81.00
33865;DHT22;20159;51.072;13.526;2023-01-15T17:02:16;6.40;81.10
33865;DHT22;20159;51.072;13.526;2023-01-15T17:04:45;6.40;81.50
33865;DHT22;20159;51.072;13.526;2023-01-15T17:07:19;6.30;81.30
33865;DHT22;20159;51.072;13.526;2023-01-15T17:09:52;6.20;81.40
33865;DHT22;20159;51.072;13.526;2023-01-15T17:14:50;6.30;81.40
33865;DHT22;20159;51.072;13.526;2023-01-15T17:19:48;6.20;81.80
33865;DHT22;20159;51.072;13.526;2023-01-15T17:22:27;6.20;81.20
33865;DHT22;20159;51.072;13.526;2023-01-15T17:24:55;6.20;81.40
33865;DHT22;20159;51.072;13.526;2023-01-15T17:27:22;6.10;81.30
33865;DHT22;20159;51.072;13.526;2023-01-15T17:29:47;6.10;81.20
33865;DHT22;20159;51.072;13.526;2023-01-15T17:32:32;6.20;81.30
33865;DHT22;20159;51.072;13.526;2023-01-15T17:35:00;6.10;81.10
33865;DHT22;20159;51.072;13.526;2023-01-15T17:37:25;6.20;81.20